Time;durP1;ratioP1;P1;durP2;ratioP2;P2;SDS_P1;SDS_P2;PMS_P1;PMS_P2;Temp;Humidity;BMP_temperature;BMP_pressure;BME280_temperature;BME280_humidity;BME280_pressure;Samples;Min_cycle;Max_cycle;Signal;HPM_P1;HPM_P2
2024/02/08 00:02:58;;;;;;;;;26.00;23.25;;;;;11.70;51.36;100702.16;146621;650;46010;-68
2024/02/08 00:06:01;;;;;;;;;52.75;42.00;;;;;11.74;51.89;100706.69;146614;613;47016;-67
2024/02/08 00:08:56;;;;;;;;;51.75;42.00;;;;;11.71;51.59;100695.25;146620;581;47010;-67
2024/02/08 00:12:03;;;;;;;;;31.00;26.50;;;;;11.69;51.46;100692.59;146618;648;46016;-67
2024/02/08 00:15:02;;;;;;;;;31.50;27.25;;;;;11.69;51.47;100690.00;146618;622;46021;-67
2024/02/08 00:18:07;;;;;;;;;16.00;13.50;;;;;11.67;51.67;100686.44;146621;601;46012;-67
2024/02/08 00:21:05;;;;;;;;;26.25;24.75;;;;;11.63;54.67;100687.13;146619;578;46020;-67
2024/02/08 00:24:02;;;;;;;;;20.75;16.25;;;;;11.64;54.73;100695.78;146618;612;46012;-67
2024/02/08 00:27:06;;;;;;;;;30.75;25.00;;;;;11.66;55.78;100694.16;146620;634;46020;-67
2024/02/08 00:30:04;;;;;;;;;25.00;21.25;;;;;11.68;54.90;100705.50;146617;584;46017;-67
2024/02/08 00:33:05;;;;;;;;;31.50;26.75;;;;;11.70;54.75;100698.69;146621;584;46012;-67
2024/02/08 00:36:02;;;;;;;;;70.50;55.50;;;;;11.74;55.75;100700.59;146617;610;47016;-68
2024/02/08 00:38:54;;;;;;;;;74.25;56.75;;;;;11.70;55.31;100693.47;146617;643;46021;-68
2024/02/08 00:41:59;;;;;;;;;45.75;36.00;;;;;11.60;55.04;100688.69;146613;593;46911;-69
2024/02/08 00:44:51;;;;;;;;;56.25;42.25;;;;;11.47;54.97;100689.81;146621;622;46011;-68
2024/02/08 00:47:50;;;;;;;;;62.00;46.75;;;;;11.40;54.59;100685.13;146610;598;46012;-67
2024/02/08 00:50:46;;;;;;;;;35.75;30.25;;;;;11.33;54.69;100694.34;146620;674;47010;-69
2024/02/08 00:53:50;;;;;;;;;29.00;25.00;;;;;11.26;54.00;100693.16;146616;577;47012;-68
2024/02/08 00:56:49;;;;;;;;;17.25;16.00;;;;;11.17;54.77;100687.53;146623;611;46010;-67
2024/02/08 00:59:44;;;;;;;;;17.25;16.50;;;;;11.07;54.59;100677.53;146613;554;46017;-68
2024/02/08 01:02:44;;;;;;;;;9.75;9.75;;;;;11.03;54.34;100666.12;146619;706;47020;-68
2024/02/08 01:06:17;;;;;;;;;7.00;7.00;;;;;8.62;52.64;100250.94;146618;592;46015;-68
2024/02/08 01:09:15;;;;;;;;;26.75;22.75;;;;;10.95;53.46;100667.44;146616;583;48023;-69
2024/02/08 01:12:13;;;;;;;;;10.25;8.00;;;;;10.94;53.44;100657.00;146617;590;46032;-68
2024/02/08 01:15:24;;;;;;;;;9.25;7.75;;;;;10.99;53.51;100659.00;146622;564;46021;-67
2024/02/08 01:18:23;;;;;;;;;42.25;34.50;;;;;11.06;53.53;100655.91;146617;579;46016;-68
2024/02/08 01:21:16;;;;;;;;;76.50;64.50;;;;;11.14;53.31;100648.47;146621;587;46020;-68
2024/02/08 01:24:21;;;;;;;;;106.00;93.33;;;;;11.19;52.64;100654.78;146622;566;46016;-68
2024/02/08 01:27:13;;;;;;;;;47.00;35.00;;;;;11.19;52.91;100646.09;146621;854;46020;-68
2024/02/08 01:30:07;;;;;;;;;44.00;35.75;;;;;11.14;52.80;100651.06;146616;604;46914;-68
2024/02/08 01:33:03;;;;;;;;;14.75;12.00;;;;;11.05;53.25;100653.22;146618;588;46010;-67
2024/02/08 01:36:06;;;;;;;;;14.50;11.75;;;;;10.96;53.16;100657.97;146614;566;47013;-67
2024/02/08 01:39:16;;;;;;;;;;;;;;;;;;;;;
2024/02/08 01:42:21;;;;;;;;;7.25;7.25;;;;;10.77;53.06;100651.88;146613;563;46016;-67
2024/02/08 01:45:43;;;;;;;;;7.00;6.00;;;;;10.56;53.03;100649.12;146619;606;47012;-69
2024/02/08 01:48:47;;;;;;;;;15.00;12.75;;;;;10.45;57.14;100655.47;146620;657;46016;-69
2024/02/08 01:51:56;;;;;;;;;;;;;;;;;;;;;
2024/02/08 01:54:53;;;;;;;;;32.75;29.25;;;;;10.62;64.41;100653.69;146616;563;47021;-68
2024/02/08 01:57:58;;;;;;;;;35.00;29.75;;;;;10.78;63.50;100647.59;146618;699;46010;-67
2024/02/08 02:01:06;;;;;;;;;37.25;30.75;;;;;10.90;64.18;100639.50;146618;602;46014;-68
2024/02/08 02:04:02;;;;;;;;;33.00;31.00;;;;;10.97;64.71;100639.88;146616;564;46020;-66
2024/02/08 02:07:09;;;;;;;;;29.25;26.75;;;;;11.01;64.99;100636.63;146613;620;46017;-68
2024/02/08 02:10:10;;;;;;;;;26.75;24.75;;;;;11.02;63.30;100638.38;146616;578;46020;-68
2024/02/08 02:13:18;;;;;;;;;30.00;24.00;;;;;11.02;61.63;100620.22;146612;597;47013;-67
2024/02/08 02:16:30;;;;;;;;;30.75;29.50;;;;;11.04;63.77;100628.09;146621;589;46010;-66
2024/02/08 02:19:29;;;;;;;;;35.50;30.75;;;;;11.08;63.22;100625.69;146618;573;46016;-66
2024/02/08 02:22:25;;;;;;;;;28.00;26.50;;;;;11.13;64.35;100627.66;146618;594;46021;-67
2024/02/08 02:25:18;;;;;;;;;24.75;21.75;;;;;11.07;62.66;100625.66;146613;570;46016;-66
2024/02/08 02:28:16;;;;;;;;;22.75;17.00;;;;;10.98;60.22;100607.94;146619;625;47010;-67
2024/02/08 02:31:17;;;;;;;;;16.00;12.75;;;;;10.91;58.92;100611.06;146620;572;45016;-67
2024/02/08 02:34:12;;;;;;;;;14.75;12.50;;;;;10.85;57.38;100608.16;146622;563;46010;-66
2024/02/08 02:37:04;;;;;;;;;11.50;9.75;;;;;10.82;56.44;100611.50;146618;678;46016;-67
2024/02/08 02:40:02;;;;;;;;;15.00;12.50;;;;;10.80;56.16;100617.41;146620;572;46010;-66
2024/02/08 02:42:58;;;;;;;;;11.25;11.00;;;;;10.76;55.26;100615.50;146618;622;46914;-66
2024/02/08 02:45:55;;;;;;;;;12.50;11.25;;;;;10.69;56.26;100618.62;146620;606;48010;-68
2024/02/08 02:48:51;;;;;;;;;14.00;11.50;;;;;10.61;56.24;100607.84;146616;579;47016;-67
2024/02/08 02:51:48;;;;;;;;;20.00;17.25;;;;;10.58;56.39;100618.97;146620;579;47010;-67
2024/02/08 02:54:42;;;;;;;;;17.00;13.50;;;;;10.48;56.67;100619.31;146615;570;47012;-67
2024/02/08 02:57:49;;;;;;;;;10.00;9.50;;;;;10.36;55.81;100622.19;146619;581;46020;-67
2024/02/08 03:00:41;;;;;;;;;12.75;11.25;;;;;10.31;55.86;100625.34;146617;573;46913;-67
2024/02/08 03:04:03;;;;;;;;;28.25;25.00;;;;;10.25;56.12;100622.41;146621;596;46020;-67
2024/02/08 03:07:16;;;;;;;;;13.50;12.00;;;;;10.23;56.01;100627.53;146617;597;46016;-67
2024/02/08 03:10:21;;;;;;;;;10.25;9.25;;;;;10.25;55.94;100627.59;146622;591;46010;-65
2024/02/08 03:13:13;;;;;;;;;11.75;11.75;;;;;10.28;56.40;100627.78;146620;588;46013;-68
2024/02/08 03:16:09;;;;;;;;;16.50;15.75;;;;;10.31;57.99;100626.25;146620;588;46010;-68
2024/02/08 03:19:04;;;;;;;;;19.25;16.75;;;;;10.36;56.81;100618.72;146618;628;46012;-66
2024/02/08 03:21:57;;;;;;;;;22.75;19.25;;;;;10.46;56.84;100618.34;146620;577;46010;-67
2024/02/08 03:24:50;;;;;;;;;20.75;18.50;;;;;10.52;57.07;100610.00;146614;563;47012;-66
2024/02/08 03:27:51;;;;;;;;;23.00;19.25;;;;;10.57;57.78;100619.78;146616;579;47020;-66
2024/02/08 03:30:46;;;;;;;;;17.75;14.00;;;;;10.54;57.71;100629.12;146617;694;46915;-65
2024/02/08 03:33:43;;;;;;;;;21.25;18.25;;;;;10.51;58.44;100624.66;146622;586;46020;-66
2024/02/08 03:36:35;;;;;;;;;19.00;16.25;;;;;10.37;58.24;100626.56;146617;581;46016;-67
2024/02/08 03:39:28;;;;;;;;;17.25;15.00;;;;;10.22;58.76;100628.34;146621;629;46020;-66
2024/02/08 03:42:26;;;;;;;;;17.00;17.00;;;;;10.06;58.83;100629.28;146617;600;46017;-65
2024/02/08 03:45:34;;;;;;;;;33.75;30.00;;;;;9.94;57.93;100632.12;146617;728;46020;-66
2024/02/08 03:48:32;;;;;;;;;19.50;16.50;;;;;9.88;60.06;100623.13;146616;607;46033;-66
2024/02/08 03:51:30;;;;;;;;;16.75;13.75;;;;;9.75;59.84;100615.50;146621;578;46010;-66
2024/02/08 03:54:30;;;;;;;;;22.50;19.50;;;;;9.65;59.35;100609.84;146618;590;46016;-67
2024/02/08 03:57:33;;;;;;;;;16.50;15.75;;;;;9.65;57.88;100607.25;146620;573;46011;-66
2024/02/08 04:00:33;;;;;;;;;17.50;15.00;;;;;9.59;59.33;100606.03;146617;587;46016;-67
2024/02/08 04:03:53;;;;;;;;;12.50;11.50;;;;;9.53;58.81;100608.31;146624;565;45020;-66
2024/02/08 04:07:00;;;;;;;;;11.25;10.50;;;;;9.49;58.80;100602.97;146618;672;47012;-68
2024/02/08 04:10:10;;;;;;;;;12.00;10.50;;;;;9.45;58.25;100613.09;146623;639;46020;-66
2024/02/08 04:55:03;;;;;;;;;25.75;23.00;;;;;9.78;62.57;100639.91;146622;629;46010;-66
2024/02/08 04:57:58;;;;;;;;;25.75;22.75;;;;;9.85;62.65;100641.09;146612;615;46914;-67
2024/02/08 05:00:51;;;;;;;;;24.50;21.75;;;;;9.94;62.38;100639.88;146620;571;46020;-69
2024/02/08 05:04:05;;;;;;;;;25.75;21.75;;;;;10.03;62.12;100647.25;146616;598;46013;-67
2024/02/08 05:07:12;;;;;;;;;30.25;25.25;;;;;10.09;62.00;100650.16;146619;599;46010;-66
2024/02/08 05:10:15;;;;;;;;;30.50;24.25;;;;;10.15;60.83;100659.91;146614;623;47012;-66
2024/02/08 05:13:12;;;;;;;;;29.00;26.00;;;;;10.18;61.85;100660.97;146617;569;47010;-67
2024/02/08 05:16:18;;;;;;;;;33.50;29.00;;;;;10.20;61.17;100658.47;146615;564;46014;-66
2024/02/08 05:19:16;;;;;;;;;29.50;25.75;;;;;10.21;60.83;100657.66;146619;599;46011;-66
2024/02/08 05:22:11;;;;;;;;;29.50;26.00;;;;;10.18;60.53;100660.97;146615;604;47012;-67
2024/02/08 05:25:16;;;;;;;;;32.75;25.00;;;;;10.16;60.39;100657.44;146616;603;46051;-66
2024/02/08 05:28:12;;;;;;;;;33.00;30.00;;;;;10.17;60.00;100661.78;146616;641;46012;-67
2024/02/08 05:31:13;;;;;;;;;24.50;21.25;;;;;10.16;59.78;100657.44;146623;634;46010;-68
2024/02/08 05:34:10;;;;;;;;;21.00;19.75;;;;;10.17;60.74;100660.91;146620;573;45017;-67
2024/02/08 05:37:17;;;;;;;;;31.75;25.75;;;;;10.13;60.41;100648.62;146618;604;47010;-67
2024/02/08 05:40:24;;;;;;;;;20.75;14.75;;;;;10.10;60.26;100645.88;146616;638;46016;-69
2024/02/08 05:43:30;;;;;;;;;17.00;14.00;;;;;10.13;59.78;100651.19;146618;628;46020;-68
2024/02/08 05:46:28;;;;;;;;;31.50;28.50;;;;;10.17;60.73;100654.00;146617;618;46012;-67
2024/02/08 05:49:48;;;;;;;;;25.75;24.25;;;;;10.24;58.76;100664.69;146618;599;47010;-66
2024/02/08 05:52:46;;;;;;;;;30.50;26.50;;;;;10.35;59.18;100661.00;146613;618;46016;-66
2024/02/08 05:55:40;;;;;;;;;34.00;30.75;;;;;10.48;58.20;100671.16;146617;573;46010;-66
2024/02/08 05:58:33;;;;;;;;;34.50;30.25;;;;;10.60;57.98;100671.78;146616;624;46016;-67
2024/02/08 06:01:40;;;;;;;;;41.75;31.50;;;;;10.13;57.39;100574.38;146620;692;46010;-67
2024/02/08 06:04:51;;;;;;;;;36.00;30.75;;;;;10.79;57.40;100667.53;146619;615;46017;-67
2024/02/08 06:07:59;;;;;;;;;47.75;38.00;;;;;10.42;61.06;100517.94;146621;633;46020;-68
2024/02/08 06:11:08;;;;;;;;;;;;;;;;;;;;;
2024/02/08 06:14:12;;;;;;;;;32.50;30.00;;;;;13.20;52.19;100658.31;146616;650;47020;-67
2024/02/08 06:17:09;;;;;;;;;32.75;29.75;;;;;13.64;53.00;100661.78;146616;644;47012;-68
2024/02/08 06:20:15;;;;;;;;;35.50;29.75;;;;;14.64;53.42;100665.38;146615;569;47020;-70
2024/02/08 06:26:43;;;;;;;;;48.50;38.75;;;;;17.55;45.66;100674.47;146617;582;46021;-69
2024/02/08 06:29:50;;;;;;;;;46.50;37.75;;;;;18.26;41.39;100675.09;146618;614;46012;-68
2024/02/08 06:33:16;;;;;;;;;43.75;35.75;;;;;17.77;41.62;100681.09;146618;791;48010;-68
2024/02/08 06:36:30;;;;;;;;;44.50;35.00;;;;;16.79;43.60;100680.50;146615;721;46012;-68
2024/02/08 06:39:29;;;;;;;;;39.25;32.00;;;;;16.11;44.65;100681.31;146619;620;46010;-68
2024/02/08 07:37:25;;;;;;;;;37.75;31.25;;;;;14.81;48.13;100733.84;146620;591;46020;-68
2024/02/08 07:40:26;;;;;;;;;45.50;34.75;;;;;14.85;47.41;100727.88;146616;597;46016;-67
2024/02/08 07:43:19;;;;;;;;;42.75;35.25;;;;;14.88;47.56;100727.97;146616;578;47012;-68
2024/02/08 07:46:19;;;;;;;;;42.25;34.25;;;;;14.98;48.19;100730.97;146615;592;46017;-68
2024/02/08 07:49:15;;;;;;;;;53.00;40.75;;;;;15.14;47.70;100721.91;146619;570;47010;-67
2024/02/08 07:52:19;;;;;;;;;46.75;36.50;;;;;15.30;47.59;100727.63;146618;582;45035;-67
2024/02/08 07:55:20;;;;;;;;;48.25;38.25;;;;;15.38;47.68;100713.94;146622;650;47010;-68
2024/02/08 07:58:18;;;;;;;;;48.75;39.00;;;;;15.50;47.23;100709.97;146616;593;46016;-67
2024/02/08 08:01:17;;;;;;;;;47.25;37.25;;;;;15.54;47.55;100717.91;146620;566;46020;-67
2024/02/08 08:04:51;;;;;;;;;48.75;38.25;;;;;15.63;47.90;100712.09;146617;623;46012;-68
2024/02/08 08:07:46;;;;;;;;;50.25;41.25;;;;;15.66;47.51;100714.81;146619;567;47020;-66
2024/02/08 08:10:48;;;;;;;;;51.75;40.00;;;;;15.69;47.75;100712.31;146611;569;46014;-68
2024/02/08 08:23:59;;;;;;;;;34.00;31.00;;;;;16.65;46.42;100706.31;146607;613;47013;-68
2024/02/08 08:30:29;;;;;;;;;30.75;27.75;;;;;17.27;44.93;100698.28;146607;610;47017;-66
2024/02/08 08:33:58;;;;;;;;;26.25;20.50;;;;;17.48;43.31;100696.16;146611;566;46020;-67
2024/02/08 08:36:36;;;;;;;;;27.00;22.50;;;;;17.73;43.75;100694.09;146606;563;47016;-67
2024/02/08 08:40:00;;;;;;;;;26.25;24.75;;;;;18.03;43.19;100690.34;146610;572;47011;-67
2024/02/08 08:42:54;;;;;;;;;25.25;22.50;;;;;18.39;42.24;100682.31;146605;607;47012;-69
2024/02/08 08:45:52;;;;;;;;;24.00;23.00;;;;;18.70;41.61;100678.50;146612;618;46011;-67
2024/02/08 08:48:54;;;;;;;;;24.25;23.25;;;;;18.99;41.66;100683.41;146608;635;46915;-67
2024/02/08 08:51:58;;;;;;;;;37.00;31.00;;;;;19.22;40.72;100667.97;146609;608;48010;-67
2024/02/08 08:55:10;;;;;;;;;33.50;28.75;;;;;19.41;40.76;100677.03;146611;628;46012;-67
2024/02/08 08:58:03;;;;;;;;;20.25;19.50;;;;;19.57;39.43;100658.00;146612;576;47010;-67
2024/02/08 09:01:11;;;;;;;;;6.50;4.25;;;;;19.73;39.62;100659.09;146609;590;47012;-69
2024/02/08 09:04:09;;;;;;;;;4.00;4.00;;;;;19.19;38.57;100542.69;146623;581;46031;-69
2024/02/08 09:07:13;;;;;;;;;2.67;2.67;;;;;18.23;40.87;100342.59;146615;569;47012;-67
2024/02/08 09:10:15;;;;;;;;;4.00;3.00;;;;;20.25;40.74;100665.00;146623;586;47012;-68
2024/02/08 09:13:07;;;;;;;;;3.00;3.00;;;;;20.40;37.09;100651.09;146617;576;46016;-68
2024/02/08 09:19:29;;;;;;;;;12.00;9.25;;;;;20.55;38.54;100653.91;146616;565;46016;-67
2024/02/08 09:22:24;;;;;;;;;3.33;3.00;;;;;20.63;37.36;100660.13;146626;616;46011;-66
2024/02/08 09:25:17;;;;;;;;;2.67;2.00;;;;;20.68;37.18;100655.78;146618;579;46016;-66
2024/02/08 09:28:23;;;;;;;;;3.00;2.00;;;;;20.74;37.28;100649.69;146619;642;46020;-67
2024/02/08 09:31:16;;;;;;;;;5.67;4.00;;;;;20.87;38.28;100643.66;146617;569;47014;-67
2024/02/08 09:34:19;;;;;;;;;3.00;3.00;;;;;21.01;37.70;100638.47;146621;682;46020;-66
2024/02/08 09:37:16;;;;;;;;;1.67;1.67;;;;;21.10;35.91;100643.81;146620;576;46914;-66
2024/02/08 09:43:39;;;;;;;;;4.33;4.00;;;;;21.25;37.15;100639.53;146616;623;46017;-66
2024/02/08 09:49:55;;;;;;;;;2.00;2.00;;;;;21.54;37.67;100637.06;146617;601;46012;-67
2024/02/08 09:52:56;;;;;;;;;3.67;3.67;;;;;21.60;37.27;100639.75;146621;629;47021;-68
2024/02/08 09:56:25;;;;;;;;;3.33;3.33;;;;;20.43;39.81;100414.09;146617;564;46016;-67
2024/02/08 10:02:53;;;;;;;;;3.33;3.00;;;;;21.92;36.53;100632.84;146618;575;46012;-66
2024/02/08 10:05:57;;;;;;;;;5.00;3.00;;;;;21.96;36.26;100632.84;146622;599;46012;-67
2024/02/08 10:08:55;;;;;;;;;3.67;3.67;;;;;22.06;36.49;100616.16;146614;577;47012;-68
2024/02/08 10:12:07;;;;;;;;;4.00;3.00;;;;;22.16;36.53;100619.72;146618;581;47020;-67
2024/02/08 10:15:13;;;;;;;;;5.33;4.00;;;;;22.29;36.95;100618.88;146618;642;46013;-66
2024/02/08 10:18:23;;;;;;;;;6.67;6.67;;;;;22.38;37.54;100600.41;146622;596;47010;-65
2024/02/08 10:21:21;;;;;;;;;5.00;4.00;;;;;22.47;35.84;100603.06;146619;570;46013;-68
2024/02/08 10:24:27;;;;;;;;;5.00;4.67;;;;;22.51;34.68;100582.78;146623;638;46020;-69
2024/02/08 10:27:43;;;;;;;;;3.33;3.33;;;;;22.59;35.29;100588.97;146615;586;47912;-68
2024/02/08 10:30:44;;;;;;;;;5.00;3.00;;;;;22.64;35.27;100588.97;146618;608;46021;-67
2024/02/08 10:33:38;;;;;;;;;3.00;3.00;;;;;22.67;34.82;100570.44;146617;577;46016;-67
2024/02/08 10:36:44;;;;;;;;;4.33;4.00;;;;;22.75;37.31;100576.63;146620;570;46021;-67
2024/02/08 10:39:32;;;;;;;;;6.00;5.00;;;;;22.83;33.49;100575.75;146708;565;46012;-66
2024/02/08 10:42:38;;;;;;;;;7.00;6.00;;;;;22.88;35.39;100559.84;146623;565;46016;-67
2024/02/08 10:45:47;;;;;;;;;3.00;3.00;;;;;22.95;36.70;100560.75;146628;584;46020;-68
2024/02/08 10:48:43;;;;;;;;;3.00;2.00;;;;;23.03;34.74;100554.56;146623;627;46016;-66
2024/02/08 10:51:39;;;;;;;;;2.33;2.33;;;;;23.11;34.29;100548.38;146626;586;46020;-67
2024/02/08 10:54:48;;;;;;;;;4.33;3.33;;;;;23.16;35.78;100551.91;146625;591;46013;-66
2024/02/08 10:58:19;;;;;;;;;4.67;4.67;;;;;23.21;34.77;100548.34;146631;569;46020;-66
2024/02/08 11:01:32;;;;;;;;;3.00;3.00;;;;;23.25;34.49;100544.81;146624;564;46913;-67
2024/02/08 11:04:41;;;;;;;;;3.67;2.00;;;;;23.27;35.58;100529.81;146629;565;46010;-66
2024/02/08 11:07:45;;;;;;;;;3.00;3.00;;;;;23.23;34.41;100524.53;146628;645;46012;-67
2024/02/08 11:11:03;;;;;;;;;5.00;3.00;;;;;23.22;37.28;100526.31;146627;579;47021;-66
2024/02/08 11:14:08;;;;;;;;;2.67;2.67;;;;;23.24;35.09;100524.53;146621;622;46016;-69
2024/02/08 11:17:04;;;;;;;;;2.00;2.00;;;;;23.27;34.30;100523.62;146630;623;46021;-71
2024/02/08 11:20:03;;;;;;;;;2.67;2.67;;;;;23.34;34.00;100524.50;146626;577;46012;-66
2024/02/08 11:23:13;;;;;;;;;4.33;3.33;;;;;23.37;34.54;100519.19;146629;565;46020;-67
2024/02/08 11:26:15;;;;;;;;;5.33;4.67;;;;;23.43;36.13;100511.22;146623;581;47012;-66
2024/02/08 11:29:18;;;;;;;;;7.67;7.67;;;;;23.44;33.69;100497.09;146630;564;46020;-67
2024/02/08 11:32:27;;;;;;;;;7.00;6.00;;;;;23.48;36.25;100496.19;146624;590;46016;-67
2024/02/08 11:36:00;;;;;;;;;5.67;4.33;;;;;23.56;36.09;100490.88;146629;577;46012;-68
2024/02/08 11:39:26;;;;;;;;;2.00;2.00;;;;;23.61;33.51;100489.06;146615;570;46915;-66
2024/02/08 11:42:24;;;;;;;;;3.00;2.67;;;;;23.62;32.87;100483.78;146622;603;46010;-66
2024/02/08 11:45:22;;;;;;;;;4.67;3.33;;;;;23.63;34.30;100476.72;146617;586;47012;-68
2024/02/08 11:48:50;;;;;;;;;2.67;2.67;;;;;23.61;34.84;100478.47;146622;626;47010;-67
2024/02/08 11:51:48;;;;;;;;;5.67;5.00;;;;;23.54;33.22;100464.41;146620;585;46034;-66
2024/02/08 11:55:12;;;;;;;;;4.50;4.00;;;;;22.57;35.23;100303.56;146624;658;47011;-68
2024/02/08 11:58:11;;;;;;;;;7.00;5.00;;;;;23.50;33.97;100465.31;146617;646;46016;-66
2024/02/08 12:01:13;;;;;;;;;6.00;5.00;;;;;23.54;33.67;100461.75;146622;645;46021;-67
2024/02/08 12:04:06;;;;;;;;;5.33;3.33;;;;;23.56;32.50;100457.34;146617;563;46016;-66
2024/02/08 12:07:14;;;;;;;;;4.00;3.00;;;;;23.56;35.01;100457.34;146623;622;46020;-72
2024/02/08 12:10:22;;;;;;;;;5.33;5.33;;;;;23.64;35.18;100447.56;146619;569;46036;-67
2024/02/08 12:13:26;;;;;;;;;4.00;3.33;;;;;23.76;35.02;100449.28;146622;592;46020;-66
2024/02/08 12:16:22;;;;;;;;;5.00;4.00;;;;;23.88;33.36;100446.56;146621;659;46016;-68
2024/02/08 12:19:21;;;;;;;;;6.00;6.00;;;;;24.01;34.46;100438.50;146621;600;46020;-67
2024/02/08 12:22:17;;;;;;;;;7.67;4.67;;;;;24.10;34.05;100438.44;146618;605;46012;-67
2024/02/08 12:25:35;;;;;;;;;7.00;4.00;;;;;24.21;33.69;100433.94;146621;642;46010;-66
2024/02/08 12:28:44;;;;;;;;;3.33;3.33;;;;;23.72;32.85;100331.97;146619;643;47012;-67
2024/02/08 12:31:45;;;;;;;;;5.67;5.67;;;;;24.33;32.18;100422.31;146625;576;46011;-67
2024/02/08 12:34:51;;;;;;;;;3.00;3.00;;;;;24.31;33.27;100424.13;146618;645;47012;-66
2024/02/08 12:37:46;;;;;;;;;8.25;6.25;;;;;24.32;32.94;100417.91;146621;627;46021;-67
2024/02/08 12:40:44;;;;;;;;;5.00;3.00;;;;;24.37;32.87;100416.97;146618;587;46911;-67
2024/02/08 12:43:42;;;;;;;;;4.33;3.00;;;;;24.42;32.28;100412.56;146621;620;46010;-68
2024/02/08 12:46:52;;;;;;;;;2.00;2.00;;;;;24.42;32.11;100409.00;146619;582;46017;-69
2024/02/08 12:49:48;;;;;;;;;3.33;3.00;;;;;24.37;32.59;100403.72;146622;611;46020;-67
2024/02/08 12:53:13;;;;;;;;;3.67;3.00;;;;;22.76;34.93;100140.47;146616;582;46017;-68
2024/02/08 12:56:18;;;;;;;;;4.67;4.00;;;;;24.32;33.10;100407.31;146621;585;46020;-68
2024/02/08 12:59:18;;;;;;;;;3.00;3.00;;;;;24.31;32.72;100403.78;146618;592;46016;-66
2024/02/08 13:02:32;;;;;;;;;4.33;3.00;;;;;24.31;33.52;100397.63;146625;591;46020;-66
2024/02/08 13:05:50;;;;;;;;;5.00;5.00;;;;;23.31;32.92;100226.44;146616;584;47014;-68
2024/02/08 13:08:45;;;;;;;;;3.67;3.00;;;;;24.11;32.05;100379.25;146619;582;46020;-67
2024/02/08 13:11:48;;;;;;;;;6.00;5.00;;;;;24.07;33.48;100380.19;146618;589;46016;-67
2024/02/08 13:15:07;;;;;;;;;6.00;5.00;;;;;23.29;33.36;100258.19;146620;652;47020;-68
2024/02/08 13:18:11;;;;;;;;;5.33;4.00;;;;;23.94;33.98;100396.19;146618;569;46016;-67
2024/02/08 13:21:09;;;;;;;;;6.33;5.00;;;;;23.76;33.75;100401.62;146619;575;47010;-68
2024/02/08 13:24:07;;;;;;;;;6.00;6.00;;;;;23.67;33.64;100401.69;146620;597;47012;-67
2024/02/08 13:27:07;;;;;;;;;6.00;6.00;;;;;23.57;34.70;100410.59;146622;573;46020;-68
2024/02/08 13:33:30;;;;;;;;;6.00;5.00;;;;;23.43;34.55;100394.81;146621;670;46020;-67
2024/02/08 13:36:28;;;;;;;;;6.25;6.25;;;;;23.39;34.86;100388.63;146617;653;46017;-67
2024/02/08 13:39:25;;;;;;;;;6.25;5.25;;;;;23.44;35.28;100385.97;146619;592;47011;-67
2024/02/08 13:42:23;;;;;;;;;6.00;5.00;;;;;23.57;34.32;100384.12;146619;586;47012;-69
2024/02/08 13:45:24;;;;;;;;;7.00;6.33;;;;;23.71;34.12;100392.87;146622;674;46021;-68
2024/02/08 13:48:19;;;;;;;;;7.67;5.67;;;;;23.84;34.09;100386.59;146621;569;46012;-68
2024/02/08 13:51:22;;;;;;;;;4.75;4.75;;;;;23.91;35.03;100393.56;146620;687;46020;-67
2024/02/08 13:54:20;;;;;;;;;5.67;4.00;;;;;24.01;34.26;100388.19;146618;580;47012;-67
2024/02/08 13:57:18;;;;;;;;;6.67;6.00;;;;;24.16;34.93;100393.34;146620;582;47010;-67
2024/02/08 14:00:31;;;;;;;;;4.00;4.00;;;;;24.32;34.01;100394.94;146619;608;46918;-67
2024/02/08 14:03:29;;;;;;;;;6.00;6.00;;;;;24.30;34.31;100388.81;146621;595;46010;-66
2024/02/08 14:06:25;;;;;;;;;8.00;4.00;;;;;24.19;33.27;100388.03;146618;641;46014;-67
2024/02/08 14:09:25;;;;;;;;;9.67;7.00;;;;;24.08;34.21;100380.19;146625;569;46021;-67
2024/02/08 14:12:33;;;;;;;;;6.33;5.00;;;;;24.13;35.06;100388.09;146619;563;46016;-69
2024/02/08 14:15:29;;;;;;;;;5.67;5.00;;;;;24.13;34.50;100378.34;146621;653;46011;-68
2024/02/08 14:18:30;;;;;;;;;8.00;7.00;;;;;23.97;34.79;100385.56;146619;663;47012;-69
2024/02/08 14:21:29;;;;;;;;;7.75;6.50;;;;;23.72;34.60;100378.75;146622;674;46013;-67
2024/02/08 14:24:30;;;;;;;;;5.75;3.75;;;;;23.44;35.65;100383.31;146614;709;47016;-67
2024/02/08 14:27:31;;;;;;;;;7.00;6.00;;;;;23.15;35.83;100396.75;146622;577;46020;-68
2024/02/08 14:30:34;;;;;;;;;7.75;7.75;;;;;22.82;37.52;100393.31;146616;577;47012;-66
2024/02/08 14:33:35;;;;;;;;;8.00;6.00;;;;;22.41;37.68;100393.47;146622;655;46010;-66
2024/02/08 14:36:38;;;;;;;;;6.00;6.00;;;;;22.00;37.93;100395.25;146621;576;47012;-67
2024/02/08 14:39:35;;;;;;;;;9.75;8.25;;;;;21.74;37.80;100402.28;146636;581;46010;-66
2024/02/08 14:42:28;;;;;;;;;5.75;5.00;;;;;21.55;38.31;100402.25;146639;564;46012;-67
2024/02/08 14:45:35;;;;;;;;;10.00;4.75;;;;;21.39;38.67;100404.00;146642;670;45021;-66
2024/02/08 14:48:37;;;;;;;;;7.67;5.00;;;;;21.26;38.25;100407.47;146640;563;46012;-67
2024/02/08 14:51:36;;;;;;;;;9.75;9.00;;;;;20.69;37.88;100328.22;146640;569;46021;-68
2024/02/08 14:54:54;;;;;;;;;9.00;7.33;;;;;21.02;37.59;100402.13;146637;654;46016;-66
2024/02/08 14:57:50;;;;;;;;;17.25;17.25;;;;;20.82;37.68;100394.16;146640;578;47010;-67
2024/02/08 15:03:58;;;;;;;;;6.00;6.00;;;;;20.47;38.77;100403.59;146643;593;45010;-65
2024/02/08 15:07:33;;;;;;;;;11.00;6.00;;;;;20.33;39.65;100407.00;146640;567;45017;-67
2024/02/08 15:10:43;;;;;;;;;4.33;3.00;;;;;20.20;39.33;100401.66;146635;618;46022;-68
2024/02/08 15:13:46;;;;;;;;;7.25;5.00;;;;;20.06;39.39;100395.41;146638;611;45016;-66
2024/02/08 15:16:44;;;;;;;;;13.75;11.75;;;;;19.96;39.89;100398.84;146642;572;45024;-66
2024/02/08 15:19:53;;;;;;;;;7.50;7.00;;;;;19.91;40.19;100401.47;146634;569;45016;-68
2024/02/08 15:22:46;;;;;;;;;8.00;7.00;;;;;19.89;39.74;100411.09;146640;621;45021;-67
2024/02/08 15:25:44;;;;;;;;;14.75;12.25;;;;;19.82;39.72;100411.91;146635;595;46016;-66
2024/02/08 15:28:55;;;;;;;;;10.75;9.75;;;;;19.71;40.22;100411.78;146634;624;46010;-67
2024/02/08 15:31:56;;;;;;;;;10.50;9.50;;;;;19.63;40.99;100413.47;146632;701;46913;-67
2024/02/08 15:35:05;;;;;;;;;14.75;13.50;;;;;19.50;40.49;100409.84;146637;607;45020;-67
2024/02/08 15:38:19;;;;;;;;;9.25;8.00;;;;;19.40;41.27;100421.09;146623;612;47014;-67
2024/02/08 15:41:28;;;;;;;;;6.75;5.75;;;;;19.26;41.33;100415.72;146618;571;46020;-66
2024/02/08 15:44:42;;;;;;;;;8.75;8.00;;;;;19.15;41.64;100422.59;146612;573;47017;-66
2024/02/08 15:47:54;;;;;;;;;14.25;11.25;;;;;19.00;42.49;100417.16;146620;638;46020;-66
2024/02/08 15:50:52;;;;;;;;;9.50;9.25;;;;;18.81;42.94;100409.03;146614;680;47012;-67
2024/02/08 15:53:59;;;;;;;;;11.00;9.75;;;;;18.68;42.84;100412.34;146619;582;46031;-68
2024/02/08 15:56:53;;;;;;;;;8.25;5.50;;;;;18.52;43.33;100410.37;146615;601;46012;-67
2024/02/08 15:59:53;;;;;;;;;5.00;5.00;;;;;18.33;43.70;100404.84;146619;676;47020;-66
2024/02/08 16:02:51;;;;;;;;;8.50;7.00;;;;;17.28;44.66;100262.44;146616;678;46016;-66
2024/02/08 16:05:59;;;;;;;;;13.00;8.25;;;;;17.84;46.02;100401.47;146617;571;47021;-66
2024/02/08 16:08:59;;;;;;;;;1.75;1.50;;;;;17.61;46.53;100402.78;146617;646;46016;-66
2024/02/08 16:11:56;;;;;;;;;7.00;6.00;;;;;17.42;47.67;100412.06;146620;590;46020;-67
2024/02/08 16:15:04;;;;;;;;;6.00;6.00;;;;;17.18;47.21;100400.25;146617;570;46012;-67
2024/02/08 16:18:22;;;;;;;;;6.00;6.00;;;;;17.07;47.33;100407.00;146620;563;46010;-67
2024/02/08 16:21:25;;;;;;;;;8.25;5.75;;;;;16.94;47.80;100402.38;146619;573;46016;-67